sensor_id;sensor_type;location;lat;lon;timestamp;temperature;humidity
7694;DHT22;3889;48.162;11.510;2022-11-03T00:01:32;6.50;99.90
7694;DHT22;3889;48.162;11.510;2022-11-03T00:04:00;6.40;99.90
7694;DHT22;3889;48.162;11.510;2022-11-03T00:06:29;6.40;99.90
7694;DHT22;3889;48.162;11.510;2022-11-03T00:08:58;6.40;99.90
7694;DHT22;3889;48.162;11.510;2022-11-03T00:11:27;6.50;99.90
7694;DHT22;3889;48.162;11.510;2022-11-03T00:13:55;6.50;99.90
7694;DHT22;3889;48.162;11.510;2022-11-03T00:16:24;6.40;99.90
7694;DHT22;3889;48.162;11.510;2022-11-03T00:18:52;6.40;99.90
7694;DHT22;3889;48.162;11.510;2022-11-03T00:21:20;6.40;99.90
7694;DHT22;3889;48.162;11.510;2022-11-03T00:23:49;6.40;99.90
7694;DHT22;3889;48.162;11.510;2022-11-03T00:26:19;6.50;99.90
7694;DHT22;3889;48.162;11.510;2022-11-03T00:28:49;6.60;99.90
7694;DHT22;3889;48.162;11.510;2022-11-03T00:31:18;6.40;99.90
7694;DHT22;3889;48.162;11.510;2022-11-03T00:33:46;6.40;99.90
7694;DHT22;3889;48.162;11.510;2022-11-03T00:36:17;6.40;99.90
7694;DHT22;3889;48.162;11.510;2022-11-03T00:38:45;6.50;99.90
7694;DHT22;3889;48.162;11.510;2022-11-03T00:41:15;6.50;99.90
7694;DHT22;3889;48.162;11.510;2022-11-03T00:43:43;6.60;99.90
7694;DHT22;3889;48.162;11.510;2022-11-03T00:46:12;6.50;99.90
7694;DHT22;3889;48.162;11.510;2022-11-03T00:48:40;6.40;99.90
7694;DHT22;3889;48.162;11.510;2022-11-03T00:51:10;6.50;99.90
7694;DHT22;3889;48.162;11.510;2022-11-03T00:53:39;6.50;99.90
7694;DHT22;3889;48.162;11.510;2022-11-03T00:56:10;6.40;99.90
7694;DHT22;3889;48.162;11.510;2022-11-03T00:58:39;6.40;99.90
7694;DHT22;3889;48.162;11.510;2022-11-03T01:01:10;6.50;99.90
7694;DHT22;3889;48.162;11.510;2022-11-03T01:03:40;6.50;99.90
7694;DHT22;3889;48.162;11.510;2022-11-03T01:06:28;6.50;99.90
7694;DHT22;3889;48.162;11.510;2022-11-03T01:09:13;6.50;99.90
7694;DHT22;3889;48.162;11.510;2022-11-03T01:11:41;6.50;99.90
7694;DHT22;3889;48.162;11.510;2022-11-03T01:14:13;6.60;99.90
7694;DHT22;3889;48.162;11.510;2022-11-03T01:16:42;6.60;99.90
7694;DHT22;3889;48.162;11.510;2022-11-03T01:19:09;6.50;99.90
7694;DHT22;3889;48.162;11.510;2022-11-03T01:21:37;6.50;99.90
7694;DHT22;3889;48.162;11.510;2022-11-03T01:24:05;6.60;99.90
7694;DHT22;3889;48.162;11.510;2022-11-03T01:26:33;6.60;99.90
7694;DHT22;3889;48.162;11.510;2022-11-03T01:29:01;6.60;99.90
7694;DHT22;3889;48.162;11.510;2022-11-03T01:31:32;6.70;99.90
7694;DHT22;3889;48.162;11.510;2022-11-03T01:33:59;6.70;99.90
7694;DHT22;3889;48.162;11.510;2022-11-03T01:36:27;6.70;99.90
7694;DHT22;3889;48.162;11.510;2022-11-03T01:38:55;6.70;99.90
7694;DHT22;3889;48.162;11.510;2022-11-03T01:41:25;6.70;99.90
7694;DHT22;3889;48.162;11.510;2022-11-03T01:44:31;6.70;99.90
7694;DHT22;3889;48.162;11.510;2022-11-03T01:47:14;6.60;99.90
7694;DHT22;3889;48.162;11.510;2022-11-03T01:49:48;6.60;99.90
7694;DHT22;3889;48.162;11.510;2022-11-03T01:52:21;6.60;99.90
7694;DHT22;3889;48.162;11.510;2022-11-03T01:54:56;6.60;99.90
7694;DHT22;3889;48.162;11.510;2022-11-03T01:57:29;6.60;99.90
7694;DHT22;3889;48.162;11.510;2022-11-03T02:00:00;6.60;99.90
7694;DHT22;3889;48.162;11.510;2022-11-03T02:02:30;6.50;99.90
7694;DHT22;3889;48.162;11.510;2022-11-03T02:04:59;6.40;99.90
7694;DHT22;3889;48.162;11.510;2022-11-03T02:07:33;6.40;99.90
7694;DHT22;3889;48.162;11.510;2022-11-03T02:10:02;6.40;99.90
7694;DHT22;3889;48.162;11.510;2022-11-03T02:12:31;6.40;99.90
7694;DHT22;3889;48.162;11.510;2022-11-03T02:15:02;6.40;99.90
7694;DHT22;3889;48.162;11.510;2022-11-03T02:17:33;6.40;99.90
7694;DHT22;3889;48.162;11.510;2022-11-03T02:20:05;6.40;99.90
7694;DHT22;3889;48.162;11.510;2022-11-03T02:23:14;6.40;99.90
7694;DHT22;3889;48.162;11.510;2022-11-03T02:25:46;6.30;99.90
7694;DHT22;3889;48.162;11.510;2022-11-03T02:28:17;6.30;99.90
7694;DHT22;3889;48.162;11.510;2022-11-03T02:30:50;6.30;99.90
7694;DHT22;3889;48.162;11.510;2022-11-03T02:33:31;6.30;99.90
7694;DHT22;3889;48.162;11.510;2022-11-03T02:36:07;6.40;99.90
7694;DHT22;3889;48.162;11.510;2022-11-03T02:38:43;6.30;99.90
7694;DHT22;3889;48.162;11.510;2022-11-03T02:41:15;6.20;99.90
7694;DHT22;3889;48.162;11.510;2022-11-03T02:43:45;6.10;99.90
7694;DHT22;3889;48.162;11.510;2022-11-03T02:46:15;6.00;99.90
7694;DHT22;3889;48.162;11.510;2022-11-03T02:48:43;6.10;99.90
7694;DHT22;3889;48.162;11.510;2022-11-03T02:51:11;6.20;99.90
7694;DHT22;3889;48.162;11.510;2022-11-03T02:53:43;6.10;99.90
7694;DHT22;3889;48.162;11.510;2022-11-03T02:56:15;6.20;99.90
7694;DHT22;3889;48.162;11.510;2022-11-03T03:01:16;6.20;99.90
7694;DHT22;3889;48.162;11.510;2022-11-03T03:03:48;6.10;99.90
7694;DHT22;3889;48.162;11.510;2022-11-03T03:06:22;6.10;99.90
7694;DHT22;3889;48.162;11.510;2022-11-03T03:08:53;6.10;99.90
7694;DHT22;3889;48.162;11.510;2022-11-03T03:11:24;5.90;99.90
7694;DHT22;3889;48.162;11.510;2022-11-03T03:14:08;6.00;99.90
7694;DHT22;3889;48.162;11.510;2022-11-03T03:16:41;6.10;99.90
7694;DHT22;3889;48.162;11.510;2022-11-03T03:19:19;6.00;99.90
7694;DHT22;3889;48.162;11.510;2022-11-03T03:21:50;5.90;99.90
7694;DHT22;3889;48.162;11.510;2022-11-03T03:24:27;5.70;99.90
7694;DHT22;3889;48.162;11.510;2022-11-03T03:27:00;5.70;99.90
7694;DHT22;3889;48.162;11.510;2022-11-03T03:29:34;5.80;99.90
7694;DHT22;3889;48.162;11.510;2022-11-03T03:32:06;5.80;99.90
7694;DHT22;3889;48.162;11.510;2022-11-03T03:34:38;5.70;99.90
7694;DHT22;3889;48.162;11.510;2022-11-03T03:37:08;5.70;99.90
7694;DHT22;3889;48.162;11.510;2022-11-03T03:39:38;5.60;99.90
7694;DHT22;3889;48.162;11.510;2022-11-03T03:42:09;5.60;99.90
7694;DHT22;3889;48.162;11.510;2022-11-03T03:44:40;5.50;99.90
7694;DHT22;3889;48.162;11.510;2022-11-03T03:47:12;5.60;99.90
7694;DHT22;3889;48.162;11.510;2022-11-03T03:49:41;5.60;99.90
7694;DHT22;3889;48.162;11.510;2022-11-03T03:52:09;5.60;99.90
7694;DHT22;3889;48.162;11.510;2022-11-03T03:54:37;5.50;99.90
7694;DHT22;3889;48.162;11.510;2022-11-03T03:57:06;5.50;99.90
7694;DHT22;3889;48.162;11.510;2022-11-03T03:59:39;5.50;99.90
7694;DHT22;3889;48.162;11.510;2022-11-03T04:02:07;5.50;99.90
7694;DHT22;3889;48.162;11.510;2022-11-03T04:04:35;5.60;99.90
7694;DHT22;3889;48.162;11.510;2022-11-03T04:07:03;5.40;99.90
7694;DHT22;3889;48.162;11.510;2022-11-03T04:09:49;5.40;99.90
7694;DHT22;3889;48.162;11.510;2022-11-03T04:12:17;5.30;99.90
7694;DHT22;3889;48.162;11.510;2022-11-03T04:15:04;5.40;99.90
7694;DHT22;3889;48.162;11.510;2022-11-03T04:17:50;5.40;99.90
7694;DHT22;3889;48.162;11.510;2022-11-03T04:20:36;5.30;99.90
7694;DHT22;3889;48.162;11.510;2022-11-03T04:23:21;5.20;99.90
7694;DHT22;3889;48.162;11.510;2022-11-03T04:25:51;5.20;99.90
7694;DHT22;3889;48.162;11.510;2022-11-03T04:28:20;5.30;99.90
7694;DHT22;3889;48.162;11.510;2022-11-03T04:30:49;5.30;99.90
7694;DHT22;3889;48.162;11.510;2022-11-03T04:33:23;5.20;99.90
7694;DHT22;3889;48.162;11.510;2022-11-03T04:35:51;5.10;99.90
7694;DHT22;3889;48.162;11.510;2022-11-03T04:38:21;5.20;99.90
7694;DHT22;3889;48.162;11.510;2022-11-03T04:40:52;5.20;99.90
7694;DHT22;3889;48.162;11.510;2022-11-03T04:43:23;5.20;99.90
7694;DHT22;3889;48.162;11.510;2022-11-03T04:45:57;5.30;99.90
7694;DHT22;3889;48.162;11.510;2022-11-03T04:48:28;5.20;99.90
7694;DHT22;3889;48.162;11.510;2022-11-03T04:50:59;5.20;99.90
7694;DHT22;3889;48.162;11.510;2022-11-03T04:53:29;5.20;99.90
7694;DHT22;3889;48.162;11.510;2022-11-03T04:55:58;5.20;99.90
7694;DHT22;3889;48.162;11.510;2022-11-03T04:58:34;5.10;99.90
7694;DHT22;3889;48.162;11.510;2022-11-03T05:01:08;5.00;99.90
7694;DHT22;3889;48.162;11.510;2022-11-03T05:03:40;5.00;99.90
7694;DHT22;3889;48.162;11.510;2022-11-03T05:06:11;5.00;99.90
7694;DHT22;3889;48.162;11.510;2022-11-03T05:08:39;5.10;99.90
7694;DHT22;3889;48.162;11.510;2022-11-03T05:11:20;5.00;99.90
7694;DHT22;3889;48.162;11.510;2022-11-03T05:13:49;5.10;99.90
7694;DHT22;3889;48.162;11.510;2022-11-03T05:16:19;5.00;99.90
7694;DHT22;3889;48.162;11.510;2022-11-03T05:18:48;4.90;99.90
7694;DHT22;3889;48.162;11.510;2022-11-03T05:21:17;4.80;99.90
7694;DHT22;3889;48.162;11.510;2022-11-03T05:23:49;4.80;99.90
7694;DHT22;3889;48.162;11.510;2022-11-03T05:26:19;4.90;99.90
7694;DHT22;3889;48.162;11.510;2022-11-03T05:28:50;4.90;99.90
7694;DHT22;3889;48.162;11.510;2022-11-03T05:31:25;4.90;99.90
7694;DHT22;3889;48.162;11.510;2022-11-03T05:33:56;5.00;99.90
7694;DHT22;3889;48.162;11.510;2022-11-03T05:36:26;4.80;99.90
7694;DHT22;3889;48.162;11.510;2022-11-03T05:38:59;4.90;99.90
7694;DHT22;3889;48.162;11.510;2022-11-03T05:41:29;4.90;99.90
7694;DHT22;3889;48.162;11.510;2022-11-03T05:43:58;4.90;99.90
7694;DHT22;3889;48.162;11.510;2022-11-03T05:46:30;4.80;99.90
7694;DHT22;3889;48.162;11.510;2022-11-03T05:49:01;4.80;99.90
7694;DHT22;3889;48.162;11.510;2022-11-03T05:51:32;4.90;99.90
7694;DHT22;3889;48.162;11.510;2022-11-03T05:54:03;5.00;99.90
7694;DHT22;3889;48.162;11.510;2022-11-03T05:56:34;4.90;99.90
7694;DHT22;3889;48.162;11.510;2022-11-03T05:59:03;4.90;99.90
7694;DHT22;3889;48.162;11.510;2022-11-03T06:01:34;4.90;99.90
7694;DHT22;3889;48.162;11.510;2022-11-03T06:04:13;4.90;99.90
7694;DHT22;3889;48.162;11.510;2022-11-03T06:06:41;5.00;99.90
7694;DHT22;3889;48.162;11.510;2022-11-03T06:09:12;5.00;99.90
7694;DHT22;3889;48.162;11.510;2022-11-03T06:11:43;4.90;99.90
7694;DHT22;3889;48.162;11.510;2022-11-03T06:14:14;5.00;99.90
7694;DHT22;3889;48.162;11.510;2022-11-03T06:16:51;5.00;99.90
7694;DHT22;3889;48.162;11.510;2022-11-03T06:19:24;5.10;99.90
7694;DHT22;3889;48.162;11.510;2022-11-03T06:21:54;5.00;99.90
7694;DHT22;3889;48.162;11.510;2022-11-03T06:24:28;5.00;99.90
7694;DHT22;3889;48.162;11.510;2022-11-03T06:26:57;5.10;99.90
7694;DHT22;3889;48.162;11.510;2022-11-03T06:29:25;5.10;99.90
7694;DHT22;3889;48.162;11.510;2022-11-03T06:31:55;5.20;99.90
7694;DHT22;3889;48.162;11.510;2022-11-03T06:34:36;5.20;99.90
7694;DHT22;3889;48.162;11.510;2022-11-03T06:37:15;5.30;99.90
7694;DHT22;3889;48.162;11.510;2022-11-03T06:39:44;5.40;99.90
7694;DHT22;3889;48.162;11.510;2022-11-03T06:42:14;5.50;99.90
7694;DHT22;3889;48.162;11.510;2022-11-03T06:44:43;5.60;99.90
7694;DHT22;3889;48.162;11.510;2022-11-03T06:47:24;5.60;99.90
7694;DHT22;3889;48.162;11.510;2022-11-03T06:49:53;5.60;99.90
7694;DHT22;3889;48.162;11.510;2022-11-03T06:52:27;5.70;99.90
7694;DHT22;3889;48.162;11.510;2022-11-03T06:55:26;5.80;99.90
7694;DHT22;3889;48.162;11.510;2022-11-03T06:57:58;5.90;99.90
7694;DHT22;3889;48.162;11.510;2022-11-03T07:00:27;5.90;99.90
7694;DHT22;3889;48.162;11.510;2022-11-03T07:03:07;6.00;99.90
7694;DHT22;3889;48.162;11.510;2022-11-03T07:05:37;6.10;99.90
7694;DHT22;3889;48.162;11.510;2022-11-03T07:08:16;6.20;99.90
7694;DHT22;3889;48.162;11.510;2022-11-03T07:10:49;6.10;99.90
7694;DHT22;3889;48.162;11.510;2022-11-03T07:13:21;6.20;99.90
7694;DHT22;3889;48.162;11.510;2022-11-03T07:15:49;6.30;99.90
7694;DHT22;3889;48.162;11.510;2022-11-03T07:18:22;6.30;99.90
7694;DHT22;3889;48.162;11.510;2022-11-03T07:20:51;6.40;99.90
7694;DHT22;3889;48.162;11.510;2022-11-03T07:23:22;6.40;99.90
7694;DHT22;3889;48.162;11.510;2022-11-03T07:25:52;6.40;99.90
7694;DHT22;3889;48.162;11.510;2022-11-03T07:28:22;6.50;99.90
7694;DHT22;3889;48.162;11.510;2022-11-03T07:30:51;6.50;99.90
7694;DHT22;3889;48.162;11.510;2022-11-03T07:33:22;6.50;99.90
7694;DHT22;3889;48.162;11.510;2022-11-03T07:35:52;6.60;99.90
7694;DHT22;3889;48.162;11.510;2022-11-03T07:38:43;6.70;99.90
7694;DHT22;3889;48.162;11.510;2022-11-03T07:41:17;6.70;99.90
7694;DHT22;3889;48.162;11.510;2022-11-03T07:43:49;6.80;99.90
7694;DHT22;3889;48.162;11.510;2022-11-03T07:46:21;6.90;99.90
7694;DHT22;3889;48.162;11.510;2022-11-03T07:48:53;6.90;99.90
7694;DHT22;3889;48.162;11.510;2022-11-03T07:51:23;6.90;99.90
7694;DHT22;3889;48.162;11.510;2022-11-03T07:53:53;6.80;99.90
7694;DHT22;3889;48.162;11.510;2022-11-03T07:56:24;6.80;99.90
7694;DHT22;3889;48.162;11.510;2022-11-03T07:58:54;6.70;99.90
7694;DHT22;3889;48.162;11.510;2022-11-03T08:01:27;6.60;99.90
7694;DHT22;3889;48.162;11.510;2022-11-03T08:04:00;6.70;99.90
7694;DHT22;3889;48.162;11.510;2022-11-03T08:06:31;6.70;99.90
7694;DHT22;3889;48.162;11.510;2022-11-03T08:08:59;6.90;99.90
7694;DHT22;3889;48.162;11.510;2022-11-03T08:11:27;6.90;99.90
7694;DHT22;3889;48.162;11.510;2022-11-03T08:13:56;6.80;99.90
7694;DHT22;3889;48.162;11.510;2022-11-03T08:16:24;6.90;99.90
7694;DHT22;3889;48.162;11.510;2022-11-03T08:18:52;7.00;99.90
7694;DHT22;3889;48.162;11.510;2022-11-03T08:21:21;7.10;99.90
7694;DHT22;3889;48.162;11.510;2022-11-03T08:23:50;7.20;99.90
7694;DHT22;3889;48.162;11.510;2022-11-03T08:26:18;7.30;99.90
7694;DHT22;3889;48.162;11.510;2022-11-03T08:28:46;7.40;99.90
7694;DHT22;3889;48.162;11.510;2022-11-03T08:31:14;7.50;99.90
7694;DHT22;3889;48.162;11.510;2022-11-03T08:33:41;7.60;99.90
7694;DHT22;3889;48.162;11.510;2022-11-03T08:36:10;7.70;99.90
7694;DHT22;3889;48.162;11.510;2022-11-03T08:38:39;7.80;99.90
7694;DHT22;3889;48.162;11.510;2022-11-03T08:41:07;7.90;99.90
7694;DHT22;3889;48.162;11.510;2022-11-03T08:43:35;8.10;99.90
7694;DHT22;3889;48.162;11.510;2022-11-03T08:46:03;8.20;99.90
7694;DHT22;3889;48.162;11.510;2022-11-03T08:48:42;8.30;99.90
7694;DHT22;3889;48.162;11.510;2022-11-03T08:51:10;8.50;99.90
7694;DHT22;3889;48.162;11.510;2022-11-03T08:53:41;8.70;99.90
7694;DHT22;3889;48.162;11.510;2022-11-03T08:56:09;8.70;99.90
7694;DHT22;3889;48.162;11.510;2022-11-03T08:58:40;8.80;99.90
7694;DHT22;3889;48.162;11.510;2022-11-03T09:01:08;8.90;99.90
7694;DHT22;3889;48.162;11.510;2022-11-03T09:03:36;9.00;99.90
7694;DHT22;3889;48.162;11.510;2022-11-03T09:06:05;9.00;99.90
7694;DHT22;3889;48.162;11.510;2022-11-03T09:08:33;9.10;99.90
7694;DHT22;3889;48.162;11.510;2022-11-03T09:11:22;9.30;99.90
7694;DHT22;3889;48.162;11.510;2022-11-03T09:13:50;9.40;99.90
7694;DHT22;3889;48.162;11.510;2022-11-03T09:16:17;9.40;99.90
7694;DHT22;3889;48.162;11.510;2022-11-03T09:18:45;9.50;99.90
7694;DHT22;3889;48.162;11.510;2022-11-03T09:21:14;9.70;99.90
7694;DHT22;3889;48.162;11.510;2022-11-03T09:23:42;9.80;99.90
7694;DHT22;3889;48.162;11.510;2022-11-03T09:26:10;9.90;99.90
7694;DHT22;3889;48.162;11.510;2022-11-03T09:28:39;10.10;99.90
7694;DHT22;3889;48.162;11.510;2022-11-03T09:31:07;10.10;99.90
7694;DHT22;3889;48.162;11.510;2022-11-03T09:33:35;10.20;99.90
7694;DHT22;3889;48.162;11.510;2022-11-03T09:36:03;10.30;99.90
7694;DHT22;3889;48.162;11.510;2022-11-03T09:38:31;10.30;99.90
7694;DHT22;3889;48.162;11.510;2022-11-03T09:40:59;10.40;99.90
7694;DHT22;3889;48.162;11.510;2022-11-03T09:43:27;10.40;99.90
7694;DHT22;3889;48.162;11.510;2022-11-03T09:45:57;10.40;99.90
7694;DHT22;3889;48.162;11.510;2022-11-03T09:48:25;10.50;99.90
7694;DHT22;3889;48.162;11.510;2022-11-03T09:50:53;10.70;99.90
7694;DHT22;3889;48.162;11.510;2022-11-03T09:53:21;10.70;99.90
7694;DHT22;3889;48.162;11.510;2022-11-03T09:55:49;10.80;99.90
7694;DHT22;3889;48.162;11.510;2022-11-03T09:58:17;10.90;99.90
7694;DHT22;3889;48.162;11.510;2022-11-03T10:00:45;10.90;99.90
7694;DHT22;3889;48.162;11.510;2022-11-03T10:03:16;11.00;99.90
7694;DHT22;3889;48.162;11.510;2022-11-03T10:05:44;11.00;99.90
7694;DHT22;3889;48.162;11.510;2022-11-03T10:08:19;11.10;99.90
7694;DHT22;3889;48.162;11.510;2022-11-03T10:10:48;11.20;99.90
7694;DHT22;3889;48.162;11.510;2022-11-03T10:13:22;11.20;99.90
7694;DHT22;3889;48.162;11.510;2022-11-03T10:15:50;11.30;99.90
7694;DHT22;3889;48.162;11.510;2022-11-03T10:18:20;11.20;99.90
7694;DHT22;3889;48.162;11.510;2022-11-03T10:20:48;11.30;99.90
7694;DHT22;3889;48.162;11.510;2022-11-03T10:23:17;11.20;99.90
7694;DHT22;3889;48.162;11.510;2022-11-03T10:25:45;11.30;99.90
7694;DHT22;3889;48.162;11.510;2022-11-03T10:28:16;11.40;99.90
7694;DHT22;3889;48.162;11.510;2022-11-03T10:30:49;11.50;99.90
7694;DHT22;3889;48.162;11.510;2022-11-03T10:33:39;11.50;99.90
7694;DHT22;3889;48.162;11.510;2022-11-03T10:36:22;11.60;99.90
7694;DHT22;3889;48.162;11.510;2022-11-03T10:38:50;11.40;99.90
7694;DHT22;3889;48.162;11.510;2022-11-03T10:41:19;11.50;99.90
7694;DHT22;3889;48.162;11.510;2022-11-03T10:43:59;11.50;99.90
7694;DHT22;3889;48.162;11.510;2022-11-03T10:46:28;11.50;99.90
7694;DHT22;3889;48.162;11.510;2022-11-03T10:49:18;11.60;99.90
7694;DHT22;3889;48.162;11.510;2022-11-03T10:51:48;11.70;99.90
7694;DHT22;3889;48.162;11.510;2022-11-03T10:54:19;11.70;99.90
7694;DHT22;3889;48.162;11.510;2022-11-03T10:56:48;11.70;99.90
7694;DHT22;3889;48.162;11.510;2022-11-03T10:59:19;11.80;99.90
7694;DHT22;3889;48.162;11.510;2022-11-03T11:01:47;11.80;99.90
7694;DHT22;3889;48.162;11.510;2022-11-03T11:04:17;11.80;99.90
7694;DHT22;3889;48.162;11.510;2022-11-03T11:06:46;11.80;99.90
7694;DHT22;3889;48.162;11.510;2022-11-03T11:09:18;11.80;99.90
7694;DHT22;3889;48.162;11.510;2022-11-03T11:12:02;11.90;99.90
7694;DHT22;3889;48.162;11.510;2022-11-03T11:14:36;12.00;99.90
7694;DHT22;3889;48.162;11.510;2022-11-03T11:17:12;12.10;99.90
7694;DHT22;3889;48.162;11.510;2022-11-03T11:20:27;12.10;99.90
7694;DHT22;3889;48.162;11.510;2022-11-03T11:26:30;12.20;99.90
7694;DHT22;3889;48.162;11.510;2022-11-03T11:39:08;12.10;99.90
7694;DHT22;3889;48.162;11.510;2022-11-03T11:42:06;12.10;99.90
7694;DHT22;3889;48.162;11.510;2022-11-03T11:47:47;12.10;99.90
7694;DHT22;3889;48.162;11.510;2022-11-03T11:50:26;12.10;99.90
7694;DHT22;3889;48.162;11.510;2022-11-03T11:53:12;12.30;99.90
7694;DHT22;3889;48.162;11.510;2022-11-03T11:55:50;12.40;99.90
7694;DHT22;3889;48.162;11.510;2022-11-03T11:58:22;12.40;99.90
7694;DHT22;3889;48.162;11.510;2022-11-03T12:00:59;12.40;99.90
7694;DHT22;3889;48.162;11.510;2022-11-03T12:03:37;12.30;99.90
7694;DHT22;3889;48.162;11.510;2022-11-03T12:06:06;12.40;99.90
7694;DHT22;3889;48.162;11.510;2022-11-03T12:08:35;12.40;99.90
7694;DHT22;3889;48.162;11.510;2022-11-03T12:11:05;12.50;99.90
7694;DHT22;3889;48.162;11.510;2022-11-03T12:13:42;12.60;99.90
7694;DHT22;3889;48.162;11.510;2022-11-03T12:16:26;12.70;99.90
7694;DHT22;3889;48.162;11.510;2022-11-03T12:18:54;12.70;99.90
7694;DHT22;3889;48.162;11.510;2022-11-03T12:21:44;12.80;99.90
7694;DHT22;3889;48.162;11.510;2022-11-03T12:24:25;13.00;99.90
7694;DHT22;3889;48.162;11.510;2022-11-03T12:26:55;13.00;99.90
7694;DHT22;3889;48.162;11.510;2022-11-03T12:29:23;13.10;99.90
7694;DHT22;3889;48.162;11.510;2022-11-03T12:31:52;13.30;99.90
7694;DHT22;3889;48.162;11.510;2022-11-03T12:34:20;13.20;99.90
7694;DHT22;3889;48.162;11.510;2022-11-03T12:36:48;13.20;99.90
7694;DHT22;3889;48.162;11.510;2022-11-03T12:39:21;13.00;99.90
7694;DHT22;3889;48.162;11.510;2022-11-03T12:41:49;13.00;99.90
7694;DHT22;3889;48.162;11.510;2022-11-03T12:44:18;13.10;99.90
7694;DHT22;3889;48.162;11.510;2022-11-03T12:46:46;13.10;99.90
7694;DHT22;3889;48.162;11.510;2022-11-03T12:49:14;13.10;99.90
7694;DHT22;3889;48.162;11.510;2022-11-03T12:51:42;13.00;99.90
7694;DHT22;3889;48.162;11.510;2022-11-03T12:54:10;13.10;99.90
7694;DHT22;3889;48.162;11.510;2022-11-03T12:56:38;13.10;99.90
7694;DHT22;3889;48.162;11.510;2022-11-03T12:59:06;13.10;99.90
7694;DHT22;3889;48.162;11.510;2022-11-03T13:01:35;13.10;99.90
7694;DHT22;3889;48.162;11.510;2022-11-03T13:04:04;13.20;99.90
7694;DHT22;3889;48.162;11.510;2022-11-03T13:06:32;13.20;99.90
7694;DHT22;3889;48.162;11.510;2022-11-03T13:09:00;13.10;99.90
7694;DHT22;3889;48.162;11.510;2022-11-03T13:11:27;13.10;99.90
7694;DHT22;3889;48.162;11.510;2022-11-03T13:14:13;13.20;99.90
7694;DHT22;3889;48.162;11.510;2022-11-03T13:16:42;13.30;99.90
7694;DHT22;3889;48.162;11.510;2022-11-03T13:19:10;13.40;99.90
7694;DHT22;3889;48.162;11.510;2022-11-03T13:21:37;13.40;99.90
7694;DHT22;3889;48.162;11.510;2022-11-03T13:24:06;13.40;99.90
7694;DHT22;3889;48.162;11.510;2022-11-03T13:26:34;13.30;99.90
7694;DHT22;3889;48.162;11.510;2022-11-03T13:29:01;13.30;99.90
7694;DHT22;3889;48.162;11.510;2022-11-03T13:31:29;13.20;99.90
7694;DHT22;3889;48.162;11.510;2022-11-03T13:33:58;13.10;99.90
7694;DHT22;3889;48.162;11.510;2022-11-03T13:36:26;13.20;99.90
7694;DHT22;3889;48.162;11.510;2022-11-03T13:38:54;13.20;99.90
7694;DHT22;3889;48.162;11.510;2022-11-03T13:41:22;13.20;99.90
7694;DHT22;3889;48.162;11.510;2022-11-03T13:43:50;13.10;99.90
7694;DHT22;3889;48.162;11.510;2022-11-03T13:46:17;13.10;99.90
7694;DHT22;3889;48.162;11.510;2022-11-03T13:48:45;13.10;99.90
7694;DHT22;3889;48.162;11.510;2022-11-03T13:51:35;13.00;99.90
7694;DHT22;3889;48.162;11.510;2022-11-03T13:54:03;13.00;99.90
7694;DHT22;3889;48.162;11.510;2022-11-03T13:56:50;13.00;99.90
7694;DHT22;3889;48.162;11.510;2022-11-03T13:59:38;12.90;99.90
7694;DHT22;3889;48.162;11.510;2022-11-03T14:02:06;12.90;99.90
7694;DHT22;3889;48.162;11.510;2022-11-03T14:04:54;12.90;99.90
7694;DHT22;3889;48.162;11.510;2022-11-03T14:07:23;12.90;99.90
7694;DHT22;3889;48.162;11.510;2022-11-03T14:09:51;12.90;99.90
7694;DHT22;3889;48.162;11.510;2022-11-03T14:12:21;12.90;99.90
7694;DHT22;3889;48.162;11.510;2022-11-03T14:14:58;12.80;99.90
7694;DHT22;3889;48.162;11.510;2022-11-03T14:17:26;12.70;99.90
7694;DHT22;3889;48.162;11.510;2022-11-03T14:19:54;12.70;99.90
7694;DHT22;3889;48.162;11.510;2022-11-03T14:22:31;12.70;99.90
7694;DHT22;3889;48.162;11.510;2022-11-03T14:24:59;12.70;99.90
7694;DHT22;3889;48.162;11.510;2022-11-03T14:27:27;12.70;99.90
7694;DHT22;3889;48.162;11.510;2022-11-03T14:29:55;12.60;99.90
7694;DHT22;3889;48.162;11.510;2022-11-03T14:32:23;12.60;99.90
7694;DHT22;3889;48.162;11.510;2022-11-03T14:34:51;12.60;99.90
7694;DHT22;3889;48.162;11.510;2022-11-03T14:37:19;12.50;99.90
7694;DHT22;3889;48.162;11.510;2022-11-03T14:39:49;12.50;99.90
7694;DHT22;3889;48.162;11.510;2022-11-03T14:42:17;12.40;99.90
7694;DHT22;3889;48.162;11.510;2022-11-03T14:44:45;12.30;99.90
7694;DHT22;3889;48.162;11.510;2022-11-03T14:47:14;12.30;99.90
7694;DHT22;3889;48.162;11.510;2022-11-03T14:49:45;12.20;99.90
7694;DHT22;3889;48.162;11.510;2022-11-03T14:52:13;12.10;99.90
7694;DHT22;3889;48.162;11.510;2022-11-03T14:54:42;12.00;99.90
7694;DHT22;3889;48.162;11.510;2022-11-03T14:57:11;12.00;99.90
7694;DHT22;3889;48.162;11.510;2022-11-03T14:59:39;11.90;99.90
7694;DHT22;3889;48.162;11.510;2022-11-03T15:02:07;11.90;99.90
7694;DHT22;3889;48.162;11.510;2022-11-03T15:04:35;11.80;99.90
7694;DHT22;3889;48.162;11.510;2022-11-03T15:07:03;11.80;99.90
7694;DHT22;3889;48.162;11.510;2022-11-03T15:09:31;11.70;99.90
7694;DHT22;3889;48.162;11.510;2022-11-03T15:11:58;11.60;99.90
7694;DHT22;3889;48.162;11.510;2022-11-03T15:14:28;11.60;99.90
7694;DHT22;3889;48.162;11.510;2022-11-03T15:16:56;11.60;99.90
7694;DHT22;3889;48.162;11.510;2022-11-03T15:19:24;11.50;99.90
7694;DHT22;3889;48.162;11.510;2022-11-03T15:21:52;11.50;99.90
7694;DHT22;3889;48.162;11.510;2022-11-03T15:24:19;11.40;99.90
7694;DHT22;3889;48.162;11.510;2022-11-03T15:27:07;11.40;99.90
7694;DHT22;3889;48.162;11.510;2022-11-03T15:29:37;11.30;99.90
7694;DHT22;3889;48.162;11.510;2022-11-03T15:32:04;11.20;99.90
7694;DHT22;3889;48.162;11.510;2022-11-03T15:34:32;11.20;99.90
7694;DHT22;3889;48.162;11.510;2022-11-03T15:37:00;11.20;99.90
7694;DHT22;3889;48.162;11.510;2022-11-03T15:39:28;11.10;99.90
7694;DHT22;3889;48.162;11.510;2022-11-03T15:41:56;11.00;99.90
7694;DHT22;3889;48.162;11.510;2022-11-03T15:44:25;11.00;99.90
7694;DHT22;3889;48.162;11.510;2022-11-03T15:46:54;11.00;99.90
7694;DHT22;3889;48.162;11.510;2022-11-03T15:49:22;11.00;99.90
7694;DHT22;3889;48.162;11.510;2022-11-03T15:51:50;10.90;99.90
7694;DHT22;3889;48.162;11.510;2022-11-03T15:54:18;10.90;99.90
7694;DHT22;3889;48.162;11.510;2022-11-03T15:56:46;10.80;99.90
7694;DHT22;3889;48.162;11.510;2022-11-03T15:59:14;10.80;99.90
7694;DHT22;3889;48.162;11.510;2022-11-03T16:01:41;10.80;99.90
7694;DHT22;3889;48.162;11.510;2022-11-03T16:04:11;10.80;99.90
7694;DHT22;3889;48.162;11.510;2022-11-03T16:06:38;10.80;99.90
7694;DHT22;3889;48.162;11.510;2022-11-03T16:09:26;10.80;99.90
7694;DHT22;3889;48.162;11.510;2022-11-03T16:11:54;10.70;99.90
7694;DHT22;3889;48.162;11.510;2022-11-03T16:14:22;10.70;99.90
7694;DHT22;3889;48.162;11.510;2022-11-03T16:16:50;10.60;99.90
7694;DHT22;3889;48.162;11.510;2022-11-03T16:19:19;10.60;99.90
7694;DHT22;3889;48.162;11.510;2022-11-03T16:21:47;10.60;99.90
7694;DHT22;3889;48.162;11.510;2022-11-03T16:24:16;10.60;99.90
7694;DHT22;3889;48.162;11.510;2022-11-03T16:26:45;10.60;99.90
7694;DHT22;3889;48.162;11.510;2022-11-03T16:29:13;10.60;99.90
7694;DHT22;3889;48.162;11.510;2022-11-03T16:31:44;10.60;99.90
7694;DHT22;3889;48.162;11.510;2022-11-03T16:34:13;10.60;99.90
7694;DHT22;3889;48.162;11.510;2022-11-03T16:36:42;10.60;99.90
7694;DHT22;3889;48.162;11.510;2022-11-03T16:39:10;10.60;99.90
7694;DHT22;3889;48.162;11.510;2022-11-03T16:41:38;10.50;99.90